sensor_id;sensor_type;location;lat;lon;timestamp;P1;durP1;ratioP1;P2;durP2;ratioP2
4794;SDS011;2411;47.060;15.064;2022-09-03T00:04:26;2.50;;;2.27;;
4794;SDS011;2411;47.060;15.064;2022-09-03T00:07:02;4.63;;;2.80;;
4794;SDS011;2411;47.060;15.064;2022-09-03T00:09:41;2.37;;;2.27;;
4794;SDS011;2411;47.060;15.064;2022-09-03T00:12:17;2.50;;;2.30;;
4794;SDS011;2411;47.060;15.064;2022-09-03T00:15:11;3.70;;;3.07;;
4794;SDS011;2411;47.060;15.064;2022-09-03T00:17:43;3.50;;;2.90;;
4794;SDS011;2411;47.060;15.064;2022-09-03T00:23:27;3.20;;;2.90;;
4794;SDS011;2411;47.060;15.064;2022-09-03T00:29:26;3.23;;;3.00;;
4794;SDS011;2411;47.060;15.064;2022-09-03T00:31:48;2.40;;;2.30;;
4794;SDS011;2411;47.060;15.064;2022-09-03T00:34:53;3.57;;;3.33;;
4794;SDS011;2411;47.060;15.064;2022-09-03T00:37:16;2.63;;;2.53;;
4794;SDS011;2411;47.060;15.064;2022-09-03T00:39:43;3.17;;;2.80;;
4794;SDS011;2411;47.060;15.064;2022-09-03T00:42:29;2.50;;;2.30;;
4794;SDS011;2411;47.060;15.064;2022-09-03T00:53:34;3.13;;;2.70;;
4794;SDS011;2411;47.060;15.064;2022-09-03T01:10:11;3.47;;;3.17;;
4794;SDS011;2411;47.060;15.064;2022-09-03T01:13:01;2.87;;;2.77;;
4794;SDS011;2411;47.060;15.064;2022-09-03T01:18:45;2.90;;;2.70;;
4794;SDS011;2411;47.060;15.064;2022-09-03T01:29:39;3.23;;;2.93;;
4794;SDS011;2411;47.060;15.064;2022-09-03T01:32:34;2.67;;;2.57;;
4794;SDS011;2411;47.060;15.064;2022-09-03T01:40:54;3.27;;;2.97;;
4794;SDS011;2411;47.060;15.064;2022-09-03T01:43:53;3.40;;;2.80;;
4794;SDS011;2411;47.060;15.064;2022-09-03T01:46:32;3.20;;;3.00;;
4794;SDS011;2411;47.060;15.064;2022-09-03T01:57:54;3.60;;;3.40;;
4794;SDS011;2411;47.060;15.064;2022-09-03T02:00:31;5.30;;;3.43;;
4794;SDS011;2411;47.060;15.064;2022-09-03T02:03:04;3.10;;;2.90;;
4794;SDS011;2411;47.060;15.064;2022-09-03T02:05:32;3.43;;;3.23;;
4794;SDS011;2411;47.060;15.064;2022-09-03T02:08:01;3.47;;;3.23;;
4794;SDS011;2411;47.060;15.064;2022-09-03T02:13:22;3.50;;;3.20;;
4794;SDS011;2411;47.060;15.064;2022-09-03T02:15:52;3.20;;;3.00;;
4794;SDS011;2411;47.060;15.064;2022-09-03T02:18:29;3.40;;;3.10;;
4794;SDS011;2411;47.060;15.064;2022-09-03T02:21:02;3.00;;;2.90;;
4794;SDS011;2411;47.060;15.064;2022-09-03T02:23:30;3.40;;;3.20;;
4794;SDS011;2411;47.060;15.064;2022-09-03T02:26:01;3.77;;;3.47;;
4794;SDS011;2411;47.060;15.064;2022-09-03T02:28:29;6.13;;;3.17;;
4794;SDS011;2411;47.060;15.064;2022-09-03T02:30:57;3.83;;;3.43;;
4794;SDS011;2411;47.060;15.064;2022-09-03T02:33:24;5.03;;;2.97;;
4794;SDS011;2411;47.060;15.064;2022-09-03T02:35:52;3.13;;;2.97;;
4794;SDS011;2411;47.060;15.064;2022-09-03T02:38:21;3.60;;;3.20;;
4794;SDS011;2411;47.060;15.064;2022-09-03T02:40:53;3.00;;;2.90;;
4794;SDS011;2411;47.060;15.064;2022-09-03T02:43:23;3.67;;;3.37;;
4794;SDS011;2411;47.060;15.064;2022-09-03T02:46:15;3.63;;;3.33;;
4794;SDS011;2411;47.060;15.064;2022-09-03T02:48:48;2.93;;;2.80;;
4794;SDS011;2411;47.060;15.064;2022-09-03T02:51:15;3.57;;;3.37;;
4794;SDS011;2411;47.060;15.064;2022-09-03T02:53:42;3.57;;;3.37;;
4794;SDS011;2411;47.060;15.064;2022-09-03T02:56:10;3.10;;;3.00;;
4794;SDS011;2411;47.060;15.064;2022-09-03T02:58:37;3.97;;;3.67;;
4794;SDS011;2411;47.060;15.064;2022-09-03T03:01:04;3.20;;;3.00;;
4794;SDS011;2411;47.060;15.064;2022-09-03T03:03:31;3.33;;;3.13;;
4794;SDS011;2411;47.060;15.064;2022-09-03T03:06:03;3.20;;;3.00;;
4794;SDS011;2411;47.060;15.064;2022-09-03T03:08:31;3.53;;;3.33;;
4794;SDS011;2411;47.060;15.064;2022-09-03T03:11:00;3.73;;;3.20;;
4794;SDS011;2411;47.060;15.064;2022-09-03T03:13:28;6.10;;;4.03;;
4794;SDS011;2411;47.060;15.064;2022-09-03T03:16:00;5.27;;;4.00;;
4794;SDS011;2411;47.060;15.064;2022-09-03T03:18:28;3.50;;;3.30;;
4794;SDS011;2411;47.060;15.064;2022-09-03T03:20:55;3.77;;;2.73;;
4794;SDS011;2411;47.060;15.064;2022-09-03T03:23:22;3.87;;;3.67;;
4794;SDS011;2411;47.060;15.064;2022-09-03T03:25:49;3.50;;;3.30;;
4794;SDS011;2411;47.060;15.064;2022-09-03T03:28:16;4.10;;;3.67;;
4794;SDS011;2411;47.060;15.064;2022-09-03T03:30:45;3.30;;;2.93;;
4794;SDS011;2411;47.060;15.064;2022-09-03T03:33:14;4.97;;;3.63;;
4794;SDS011;2411;47.060;15.064;2022-09-03T03:35:41;6.40;;;3.57;;
4794;SDS011;2411;47.060;15.064;2022-09-03T03:38:08;3.83;;;3.63;;
4794;SDS011;2411;47.060;15.064;2022-09-03T03:40:36;3.77;;;3.53;;
4794;SDS011;2411;47.060;15.064;2022-09-03T03:43:04;3.23;;;3.03;;
4794;SDS011;2411;47.060;15.064;2022-09-03T03:45:31;11.30;;;3.40;;
4794;SDS011;2411;47.060;15.064;2022-09-03T03:47:58;4.23;;;3.93;;
4794;SDS011;2411;47.060;15.064;2022-09-03T03:50:25;3.60;;;3.37;;
4794;SDS011;2411;47.060;15.064;2022-09-03T03:52:53;3.73;;;3.53;;
4794;SDS011;2411;47.060;15.064;2022-09-03T03:55:20;3.77;;;3.57;;
4794;SDS011;2411;47.060;15.064;2022-09-03T03:57:46;3.80;;;3.47;;
4794;SDS011;2411;47.060;15.064;2022-09-03T04:00:13;4.17;;;3.87;;
4794;SDS011;2411;47.060;15.064;2022-09-03T04:02:41;4.07;;;3.77;;
4794;SDS011;2411;47.060;15.064;2022-09-03T04:05:08;3.53;;;3.33;;
4794;SDS011;2411;47.060;15.064;2022-09-03T04:07:36;3.90;;;3.70;;
4794;SDS011;2411;47.060;15.064;2022-09-03T04:10:03;3.63;;;3.33;;
4794;SDS011;2411;47.060;15.064;2022-09-03T04:12:31;4.00;;;3.70;;
4794;SDS011;2411;47.060;15.064;2022-09-03T04:14:58;4.07;;;3.77;;
4794;SDS011;2411;47.060;15.064;2022-09-03T04:17:26;4.50;;;3.70;;
4794;SDS011;2411;47.060;15.064;2022-09-03T04:19:53;9.13;;;3.93;;
4794;SDS011;2411;47.060;15.064;2022-09-03T04:22:20;3.07;;;2.90;;
4794;SDS011;2411;47.060;15.064;2022-09-03T04:24:47;4.20;;;3.93;;
4794;SDS011;2411;47.060;15.064;2022-09-03T04:27:14;4.17;;;3.87;;
4794;SDS011;2411;47.060;15.064;2022-09-03T04:29:41;4.83;;;4.10;;
4794;SDS011;2411;47.060;15.064;2022-09-03T04:32:08;3.50;;;3.30;;
4794;SDS011;2411;47.060;15.064;2022-09-03T04:34:53;4.20;;;3.90;;
4794;SDS011;2411;47.060;15.064;2022-09-03T04:37:20;3.43;;;3.27;;
4794;SDS011;2411;47.060;15.064;2022-09-03T04:39:47;3.77;;;3.57;;
4794;SDS011;2411;47.060;15.064;2022-09-03T04:42:14;4.07;;;3.77;;
4794;SDS011;2411;47.060;15.064;2022-09-03T04:44:41;3.63;;;3.27;;
4794;SDS011;2411;47.060;15.064;2022-09-03T04:47:08;3.73;;;3.53;;
4794;SDS011;2411;47.060;15.064;2022-09-03T04:49:35;3.60;;;3.40;;
4794;SDS011;2411;47.060;15.064;2022-09-03T04:52:02;5.53;;;4.67;;
4794;SDS011;2411;47.060;15.064;2022-09-03T04:54:29;3.90;;;3.60;;
4794;SDS011;2411;47.060;15.064;2022-09-03T04:56:56;3.90;;;3.70;;
4794;SDS011;2411;47.060;15.064;2022-09-03T04:59:23;3.67;;;3.37;;
4794;SDS011;2411;47.060;15.064;2022-09-03T05:01:50;5.73;;;3.13;;
4794;SDS011;2411;47.060;15.064;2022-09-03T05:04:18;4.60;;;4.20;;
4794;SDS011;2411;47.060;15.064;2022-09-03T05:06:45;3.87;;;3.67;;
4794;SDS011;2411;47.060;15.064;2022-09-03T05:09:12;4.40;;;4.10;;
4794;SDS011;2411;47.060;15.064;2022-09-03T05:11:39;6.53;;;4.20;;
4794;SDS011;2411;47.060;15.064;2022-09-03T05:14:05;4.27;;;3.97;;
4794;SDS011;2411;47.060;15.064;2022-09-03T05:16:37;3.93;;;3.63;;
4794;SDS011;2411;47.060;15.064;2022-09-03T05:19:04;4.20;;;3.77;;
4794;SDS011;2411;47.060;15.064;2022-09-03T05:21:31;3.70;;;3.50;;
4794;SDS011;2411;47.060;15.064;2022-09-03T05:23:58;4.10;;;3.70;;
4794;SDS011;2411;47.060;15.064;2022-09-03T05:26:27;3.40;;;3.20;;
4794;SDS011;2411;47.060;15.064;2022-09-03T05:28:57;3.83;;;3.63;;
4794;SDS011;2411;47.060;15.064;2022-09-03T05:31:26;3.70;;;3.40;;
4794;SDS011;2411;47.060;15.064;2022-09-03T05:33:57;4.80;;;3.73;;
4794;SDS011;2411;47.060;15.064;2022-09-03T05:36:27;3.50;;;3.30;;
4794;SDS011;2411;47.060;15.064;2022-09-03T05:39:00;3.53;;;3.33;;
4794;SDS011;2411;47.060;15.064;2022-09-03T05:41:27;4.30;;;4.00;;
4794;SDS011;2411;47.060;15.064;2022-09-03T05:43:55;4.03;;;3.83;;
4794;SDS011;2411;47.060;15.064;2022-09-03T05:46:32;4.60;;;3.93;;
4794;SDS011;2411;47.060;15.064;2022-09-03T05:48:59;4.57;;;4.17;;
4794;SDS011;2411;47.060;15.064;2022-09-03T05:51:28;4.10;;;3.80;;
4794;SDS011;2411;47.060;15.064;2022-09-03T05:53:56;5.20;;;4.80;;
4794;SDS011;2411;47.060;15.064;2022-09-03T05:56:24;4.00;;;3.80;;
4794;SDS011;2411;47.060;15.064;2022-09-03T05:58:53;4.43;;;4.20;;
4794;SDS011;2411;47.060;15.064;2022-09-03T06:01:22;10.60;;;4.90;;
4794;SDS011;2411;47.060;15.064;2022-09-03T06:03:55;11.77;;;4.37;;
4794;SDS011;2411;47.060;15.064;2022-09-03T06:06:23;4.27;;;3.93;;
4794;SDS011;2411;47.060;15.064;2022-09-03T06:08:52;3.43;;;3.23;;
4794;SDS011;2411;47.060;15.064;2022-09-03T06:11:28;3.43;;;3.23;;
4794;SDS011;2411;47.060;15.064;2022-09-03T06:13:56;12.90;;;3.47;;
4794;SDS011;2411;47.060;15.064;2022-09-03T06:16:26;3.40;;;3.20;;
4794;SDS011;2411;47.060;15.064;2022-09-03T06:18:57;7.00;;;3.20;;
4794;SDS011;2411;47.060;15.064;2022-09-03T06:21:27;3.27;;;3.07;;
4794;SDS011;2411;47.060;15.064;2022-09-03T06:23:55;2.47;;;2.37;;
4794;SDS011;2411;47.060;15.064;2022-09-03T06:26:25;3.57;;;3.27;;
4794;SDS011;2411;47.060;15.064;2022-09-03T06:28:54;3.73;;;2.67;;
4794;SDS011;2411;47.060;15.064;2022-09-03T06:31:22;3.53;;;2.67;;
4794;SDS011;2411;47.060;15.064;2022-09-03T06:33:50;4.40;;;2.60;;
4794;SDS011;2411;47.060;15.064;2022-09-03T06:36:20;2.70;;;2.50;;
4794;SDS011;2411;47.060;15.064;2022-09-03T06:38:53;3.23;;;2.63;;
4794;SDS011;2411;47.060;15.064;2022-09-03T06:41:22;6.40;;;2.30;;
4794;SDS011;2411;47.060;15.064;2022-09-03T06:43:51;7.27;;;2.50;;
4794;SDS011;2411;47.060;15.064;2022-09-03T06:46:21;2.60;;;2.40;;
4794;SDS011;2411;47.060;15.064;2022-09-03T06:48:49;3.17;;;2.87;;
4794;SDS011;2411;47.060;15.064;2022-09-03T06:51:18;3.63;;;3.10;;
4794;SDS011;2411;47.060;15.064;2022-09-03T06:53:48;3.53;;;2.67;;
4794;SDS011;2411;47.060;15.064;2022-09-03T06:56:20;4.03;;;3.30;;
4794;SDS011;2411;47.060;15.064;2022-09-03T06:58:53;3.37;;;3.07;;
4794;SDS011;2411;47.060;15.064;2022-09-03T07:01:23;3.50;;;3.20;;
4794;SDS011;2411;47.060;15.064;2022-09-03T07:03:52;3.40;;;3.20;;
4794;SDS011;2411;47.060;15.064;2022-09-03T07:06:22;3.80;;;3.40;;
4794;SDS011;2411;47.060;15.064;2022-09-03T07:08:51;3.73;;;3.33;;
4794;SDS011;2411;47.060;15.064;2022-09-03T07:11:19;4.00;;;3.70;;
4794;SDS011;2411;47.060;15.064;2022-09-03T07:13:49;3.50;;;3.03;;
4794;SDS011;2411;47.060;15.064;2022-09-03T07:16:18;2.50;;;2.40;;
4794;SDS011;2411;47.060;15.064;2022-09-03T07:18:47;3.73;;;2.60;;
4794;SDS011;2411;47.060;15.064;2022-09-03T07:21:18;3.30;;;3.00;;
4794;SDS011;2411;47.060;15.064;2022-09-03T07:23:47;3.30;;;2.87;;
4794;SDS011;2411;47.060;15.064;2022-09-03T07:26:16;3.73;;;2.97;;
4794;SDS011;2411;47.060;15.064;2022-09-03T07:28:45;2.80;;;2.60;;
4794;SDS011;2411;47.060;15.064;2022-09-03T07:31:15;3.10;;;2.80;;
4794;SDS011;2411;47.060;15.064;2022-09-03T07:33:54;3.83;;;3.37;;
4794;SDS011;2411;47.060;15.064;2022-09-03T07:36:22;2.63;;;2.53;;
4794;SDS011;2411;47.060;15.064;2022-09-03T07:38:53;6.33;;;2.60;;
4794;SDS011;2411;47.060;15.064;2022-09-03T07:41:22;3.10;;;2.90;;
4794;SDS011;2411;47.060;15.064;2022-09-03T07:43:54;2.40;;;2.30;;
4794;SDS011;2411;47.060;15.064;2022-09-03T07:46:23;2.50;;;2.30;;
4794;SDS011;2411;47.060;15.064;2022-09-03T07:48:53;2.63;;;2.43;;
4794;SDS011;2411;47.060;15.064;2022-09-03T07:51:23;2.97;;;2.77;;
4794;SDS011;2411;47.060;15.064;2022-09-03T07:53:55;3.17;;;2.93;;
4794;SDS011;2411;47.060;15.064;2022-09-03T07:56:23;2.00;;;1.90;;
4794;SDS011;2411;47.060;15.064;2022-09-03T07:58:52;5.77;;;2.17;;
4794;SDS011;2411;47.060;15.064;2022-09-03T08:01:22;2.70;;;2.33;;
4794;SDS011;2411;47.060;15.064;2022-09-03T08:03:51;3.90;;;2.50;;
4794;SDS011;2411;47.060;15.064;2022-09-03T08:06:23;3.07;;;2.57;;
4794;SDS011;2411;47.060;15.064;2022-09-03T08:08:55;4.30;;;2.80;;
4794;SDS011;2411;47.060;15.064;2022-09-03T08:11:30;11.77;;;3.23;;
4794;SDS011;2411;47.060;15.064;2022-09-03T08:14:05;6.63;;;2.97;;
4794;SDS011;2411;47.060;15.064;2022-09-03T08:16:35;3.73;;;2.57;;
4794;SDS011;2411;47.060;15.064;2022-09-03T08:19:04;6.33;;;2.43;;
4794;SDS011;2411;47.060;15.064;2022-09-03T08:21:33;4.73;;;2.20;;
4794;SDS011;2411;47.060;15.064;2022-09-03T08:24:00;2.40;;;2.30;;
4794;SDS011;2411;47.060;15.064;2022-09-03T08:26:32;6.60;;;2.40;;
4794;SDS011;2411;47.060;15.064;2022-09-03T08:29:00;11.07;;;2.80;;
4794;SDS011;2411;47.060;15.064;2022-09-03T08:31:28;2.80;;;2.20;;
4794;SDS011;2411;47.060;15.064;2022-09-03T08:33:56;4.37;;;2.63;;
4794;SDS011;2411;47.060;15.064;2022-09-03T08:36:26;2.20;;;2.10;;
4794;SDS011;2411;47.060;15.064;2022-09-03T08:38:58;2.80;;;2.60;;
4794;SDS011;2411;47.060;15.064;2022-09-03T08:46:49;3.13;;;2.27;;
4794;SDS011;2411;47.060;15.064;2022-09-03T08:49:28;5.03;;;3.30;;
4794;SDS011;2411;47.060;15.064;2022-09-03T08:52:23;4.23;;;2.87;;
4794;SDS011;2411;47.060;15.064;2022-09-03T08:54:51;2.60;;;2.50;;
4794;SDS011;2411;47.060;15.064;2022-09-03T08:57:24;3.43;;;2.93;;
4794;SDS011;2411;47.060;15.064;2022-09-03T08:59:52;5.73;;;2.63;;
4794;SDS011;2411;47.060;15.064;2022-09-03T09:02:34;3.93;;;2.40;;
4794;SDS011;2411;47.060;15.064;2022-09-03T09:05:04;3.30;;;2.60;;
4794;SDS011;2411;47.060;15.064;2022-09-03T09:08:00;1.93;;;1.83;;
4794;SDS011;2411;47.060;15.064;2022-09-03T09:10:53;4.20;;;2.40;;
4794;SDS011;2411;47.060;15.064;2022-09-03T09:13:38;3.23;;;2.50;;
4794;SDS011;2411;47.060;15.064;2022-09-03T09:16:18;8.30;;;2.07;;
4794;SDS011;2411;47.060;15.064;2022-09-03T09:22:07;3.30;;;1.80;;
4794;SDS011;2411;47.060;15.064;2022-09-03T09:24:40;2.10;;;1.90;;
4794;SDS011;2411;47.060;15.064;2022-09-03T09:27:12;2.60;;;2.40;;
4794;SDS011;2411;47.060;15.064;2022-09-03T09:29:42;2.23;;;2.03;;
4794;SDS011;2411;47.060;15.064;2022-09-03T09:32:15;2.77;;;2.50;;
4794;SDS011;2411;47.060;15.064;2022-09-03T09:34:46;2.73;;;1.97;;
4794;SDS011;2411;47.060;15.064;2022-09-03T09:37:17;1.97;;;1.87;;
4794;SDS011;2411;47.060;15.064;2022-09-03T09:39:56;2.30;;;1.90;;
4794;SDS011;2411;47.060;15.064;2022-09-03T09:42:24;5.70;;;2.00;;
4794;SDS011;2411;47.060;15.064;2022-09-03T09:44:52;2.17;;;2.07;;
4794;SDS011;2411;47.060;15.064;2022-09-03T09:47:21;2.23;;;1.90;;
4794;SDS011;2411;47.060;15.064;2022-09-03T09:49:58;1.80;;;1.70;;
4794;SDS011;2411;47.060;15.064;2022-09-03T09:52:26;2.00;;;1.80;;
4794;SDS011;2411;47.060;15.064;2022-09-03T09:55:07;2.07;;;1.97;;
4794;SDS011;2411;47.060;15.064;2022-09-03T09:57:42;2.97;;;2.13;;
4794;SDS011;2411;47.060;15.064;2022-09-03T10:00:11;5.20;;;2.17;;
4794;SDS011;2411;47.060;15.064;2022-09-03T10:02:47;2.20;;;2.00;;
4794;SDS011;2411;47.060;15.064;2022-09-03T10:05:23;7.17;;;2.60;;
4794;SDS011;2411;47.060;15.064;2022-09-03T10:08:03;3.37;;;2.70;;
4794;SDS011;2411;47.060;15.064;2022-09-03T10:10:45;5.17;;;2.87;;
4794;SDS011;2411;47.060;15.064;2022-09-03T10:13:18;4.27;;;2.10;;
4794;SDS011;2411;47.060;15.064;2022-09-03T10:18:25;2.63;;;1.60;;
4794;SDS011;2411;47.060;15.064;2022-09-03T10:23:57;2.43;;;2.23;;
4794;SDS011;2411;47.060;15.064;2022-09-03T10:26:50;2.80;;;2.03;;
4794;SDS011;2411;47.060;15.064;2022-09-03T10:29:19;2.60;;;2.33;;
4794;SDS011;2411;47.060;15.064;2022-09-03T10:31:57;7.30;;;2.50;;
4794;SDS011;2411;47.060;15.064;2022-09-03T10:40:35;1.80;;;1.70;;
4794;SDS011;2411;47.060;15.064;2022-09-03T10:43:24;3.83;;;2.00;;
4794;SDS011;2411;47.060;15.064;2022-09-03T10:49:13;1.90;;;1.80;;
4794;SDS011;2411;47.060;15.064;2022-09-03T10:51:45;2.10;;;2.00;;
4794;SDS011;2411;47.060;15.064;2022-09-03T11:00:08;3.73;;;1.80;;
4794;SDS011;2411;47.060;15.064;2022-09-03T11:06:03;1.43;;;1.33;;
4794;SDS011;2411;47.060;15.064;2022-09-03T11:11:16;4.20;;;2.00;;
4794;SDS011;2411;47.060;15.064;2022-09-03T11:13:58;2.00;;;1.63;;
4794;SDS011;2411;47.060;15.064;2022-09-03T11:16:32;2.97;;;2.03;;
4794;SDS011;2411;47.060;15.064;2022-09-03T11:19:16;2.00;;;1.90;;
4794;SDS011;2411;47.060;15.064;2022-09-03T11:21:45;3.27;;;2.50;;
4794;SDS011;2411;47.060;15.064;2022-09-03T11:24:17;1.80;;;1.70;;
4794;SDS011;2411;47.060;15.064;2022-09-03T11:32:07;1.90;;;1.80;;
4794;SDS011;2411;47.060;15.064;2022-09-03T11:34:56;2.40;;;1.90;;
4794;SDS011;2411;47.060;15.064;2022-09-03T11:37:24;3.63;;;1.97;;
4794;SDS011;2411;47.060;15.064;2022-09-03T11:40:02;1.70;;;1.60;;
4794;SDS011;2411;47.060;15.064;2022-09-03T11:42:37;2.93;;;1.70;;
4794;SDS011;2411;47.060;15.064;2022-09-03T11:45:20;2.20;;;1.57;;
4794;SDS011;2411;47.060;15.064;2022-09-03T11:47:55;1.97;;;1.87;;
4794;SDS011;2411;47.060;15.064;2022-09-03T11:53:39;2.20;;;2.00;;
4794;SDS011;2411;47.060;15.064;2022-09-03T11:55:51;5.70;;;1.50;;
4794;SDS011;2411;47.060;15.064;2022-09-03T12:00:54;3.47;;;1.87;;
4794;SDS011;2411;47.060;15.064;2022-09-03T12:03:22;1.83;;;1.73;;
4794;SDS011;2411;47.060;15.064;2022-09-03T12:06:03;3.60;;;2.03;;
4794;SDS011;2411;47.060;15.064;2022-09-03T12:22:18;3.53;;;1.70;;
4794;SDS011;2411;47.060;15.064;2022-09-03T12:24:46;1.80;;;1.70;;
4794;SDS011;2411;47.060;15.064;2022-09-03T12:27:20;2.83;;;1.97;;
4794;SDS011;2411;47.060;15.064;2022-09-03T12:29:59;2.10;;;1.83;;
4794;SDS011;2411;47.060;15.064;2022-09-03T12:32:32;2.40;;;1.87;;
4794;SDS011;2411;47.060;15.064;2022-09-03T12:35:09;2.30;;;2.00;;
4794;SDS011;2411;47.060;15.064;2022-09-03T12:38:07;2.80;;;1.67;;
4794;SDS011;2411;47.060;15.064;2022-09-03T12:40:41;4.10;;;2.03;;
4794;SDS011;2411;47.060;15.064;2022-09-03T12:43:29;1.77;;;1.67;;
4794;SDS011;2411;47.060;15.064;2022-09-03T12:46:15;2.70;;;2.20;;
4794;SDS011;2411;47.060;15.064;2022-09-03T12:48:51;3.47;;;2.13;;
4794;SDS011;2411;47.060;15.064;2022-09-03T12:51:42;1.67;;;1.57;;
4794;SDS011;2411;47.060;15.064;2022-09-03T12:54:19;3.77;;;2.13;;
4794;SDS011;2411;47.060;15.064;2022-09-03T12:56:47;2.10;;;1.90;;
4794;SDS011;2411;47.060;15.064;2022-09-03T12:59:21;3.43;;;1.80;;
4794;SDS011;2411;47.060;15.064;2022-09-03T13:01:52;2.50;;;1.70;;
4794;SDS011;2411;47.060;15.064;2022-09-03T13:04:24;1.53;;;1.43;;
4794;SDS011;2411;47.060;15.064;2022-09-03T13:06:58;1.87;;;1.77;;
4794;SDS011;2411;47.060;15.064;2022-09-03T13:09:29;3.33;;;1.80;;
4794;SDS011;2411;47.060;15.064;2022-09-03T13:11:58;5.40;;;2.20;;
4794;SDS011;2411;47.060;15.064;2022-09-03T13:14:26;1.83;;;1.73;;
4794;SDS011;2411;47.060;15.064;2022-09-03T13:16:59;4.70;;;1.70;;
4794;SDS011;2411;47.060;15.064;2022-09-03T13:22:13;1.90;;;1.80;;
4794;SDS011;2411;47.060;15.064;2022-09-03T13:24:49;4.43;;;2.17;;
4794;SDS011;2411;47.060;15.064;2022-09-03T13:33:44;1.90;;;1.80;;
4794;SDS011;2411;47.060;15.064;2022-09-03T13:36:18;2.00;;;1.80;;
4794;SDS011;2411;47.060;15.064;2022-09-03T13:44:11;3.63;;;2.40;;
4794;SDS011;2411;47.060;15.064;2022-09-03T13:47:07;1.70;;;1.50;;
4794;SDS011;2411;47.060;15.064;2022-09-03T13:53:01;3.30;;;1.80;;
4794;SDS011;2411;47.060;15.064;2022-09-03T13:55:54;2.30;;;1.93;;
4794;SDS011;2411;47.060;15.064;2022-09-03T13:58:37;2.30;;;2.13;;
4794;SDS011;2411;47.060;15.064;2022-09-03T14:04:20;3.17;;;2.10;;
4794;SDS011;2411;47.060;15.064;2022-09-03T14:14:55;2.57;;;1.90;;
4794;SDS011;2411;47.060;15.064;2022-09-03T14:20:11;2.27;;;2.17;;
4794;SDS011;2411;47.060;15.064;2022-09-03T14:25:50;2.70;;;1.90;;
4794;SDS011;2411;47.060;15.064;2022-09-03T14:28:26;2.60;;;2.00;;
4794;SDS011;2411;47.060;15.064;2022-09-03T15:01:13;5.13;;;2.20;;
4794;SDS011;2411;47.060;15.064;2022-09-03T15:09:20;2.63;;;1.93;;
4794;SDS011;2411;47.060;15.064;2022-09-03T15:11:57;2.50;;;2.00;;
4794;SDS011;2411;47.060;15.064;2022-09-03T15:24:52;5.30;;;2.20;;
4794;SDS011;2411;47.060;15.064;2022-09-03T15:30:31;2.00;;;1.70;;
4794;SDS011;2411;47.060;15.064;2022-09-03T15:33:09;1.90;;;1.70;;
4794;SDS011;2411;47.060;15.064;2022-09-03T15:38:38;6.33;;;2.50;;
4794;SDS011;2411;47.060;15.064;2022-09-03T15:44:02;2.27;;;2.03;;
4794;SDS011;2411;47.060;15.064;2022-09-03T15:46:36;10.13;;;1.90;;
4794;SDS011;2411;47.060;15.064;2022-09-03T15:49:30;7.00;;;1.97;;
4794;SDS011;2411;47.060;15.064;2022-09-03T16:03:21;2.43;;;1.90;;
4794;SDS011;2411;47.060;15.064;2022-09-03T16:06:01;2.03;;;1.90;;
4794;SDS011;2411;47.060;15.064;2022-09-03T16:11:38;3.47;;;2.10;;
4794;SDS011;2411;47.060;15.064;2022-09-03T16:14:19;6.70;;;2.23;;
4794;SDS011;2411;47.060;15.064;2022-09-03T16:16:58;7.53;;;2.50;;
4794;SDS011;2411;47.060;15.064;2022-09-03T16:22:29;2.20;;;2.10;;
4794;SDS011;2411;47.060;15.064;2022-09-03T16:24:59;2.10;;;2.00;;
4794;SDS011;2411;47.060;15.064;2022-09-03T16:27:31;2.73;;;2.07;;
4794;SDS011;2411;47.060;15.064;2022-09-03T16:41:01;11.83;;;2.40;;
4794;SDS011;2411;47.060;15.064;2022-09-03T16:44:07;3.97;;;2.17;;
4794;SDS011;2411;47.060;15.064;2022-09-03T16:55:23;3.50;;;2.00;;
4794;SDS011;2411;47.060;15.064;2022-09-03T17:03:55;1.90;;;1.80;;
4794;SDS011;2411;47.060;15.064;2022-09-03T17:09:37;5.03;;;2.70;;
4794;SDS011;2411;47.060;15.064;2022-09-03T17:15:28;6.83;;;2.27;;
4794;SDS011;2411;47.060;15.064;2022-09-03T17:28:48;4.03;;;2.10;;
4794;SDS011;2411;47.060;15.064;2022-09-03T17:39:53;2.60;;;2.40;;
4794;SDS011;2411;47.060;15.064;2022-09-03T17:43:23;4.07;;;2.00;;
4794;SDS011;2411;47.060;15.064;2022-09-03T17:51:29;3.83;;;1.97;;
4794;SDS011;2411;47.060;15.064;2022-09-03T18:00:06;2.80;;;2.60;;
4794;SDS011;2411;47.060;15.064;2022-09-03T18:08:11;3.80;;;2.33;;
4794;SDS011;2411;47.060;15.064;2022-09-03T18:10:51;2.50;;;2.30;;
4794;SDS011;2411;47.060;15.064;2022-09-03T18:16:14;4.30;;;2.40;;
4794;SDS011;2411;47.060;15.064;2022-09-03T18:18:45;4.20;;;2.40;;
4794;SDS011;2411;47.060;15.064;2022-09-03T18:21:21;2.70;;;2.07;;
4794;SDS011;2411;47.060;15.064;2022-09-03T18:30:22;3.27;;;2.33;;
4794;SDS011;2411;47.060;15.064;2022-09-03T18:33:11;4.43;;;2.97;;
4794;SDS011;2411;47.060;15.064;2022-09-03T18:35:57;2.00;;;1.80;;
4794;SDS011;2411;47.060;15.064;2022-09-03T18:38:43;3.13;;;2.83;;
4794;SDS011;2411;47.060;15.064;2022-09-03T18:51:27;2.40;;;2.20;;
4794;SDS011;2411;47.060;15.064;2022-09-03T18:54:43;10.50;;;2.67;;
4794;SDS011;2411;47.060;15.064;2022-09-03T19:00:41;5.87;;;2.87;;
4794;SDS011;2411;47.060;15.064;2022-09-03T19:04:04;2.47;;;2.27;;
4794;SDS011;2411;47.060;15.064;2022-09-03T19:10:27;3.63;;;2.50;;
4794;SDS011;2411;47.060;15.064;2022-09-03T19:13:36;2.83;;;2.13;;
4794;SDS011;2411;47.060;15.064;2022-09-03T19:16:25;3.17;;;2.30;;
4794;SDS011;2411;47.060;15.064;2022-09-03T19:23:01;7.83;;;2.40;;
4794;SDS011;2411;47.060;15.064;2022-09-03T19:25:47;2.40;;;2.30;;
4794;SDS011;2411;47.060;15.064;2022-09-03T19:28:36;5.10;;;2.50;;
4794;SDS011;2411;47.060;15.064;2022-09-03T19:49:29;3.33;;;2.93;;
4794;SDS011;2411;47.060;15.064;2022-09-03T19:55:23;4.40;;;3.60;;
4794;SDS011;2411;47.060;15.064;2022-09-03T19:58:11;7.77;;;2.80;;
4794;SDS011;2411;47.060;15.064;2022-09-03T20:01:09;3.33;;;2.93;;
4794;SDS011;2411;47.060;15.064;2022-09-03T20:03:57;2.77;;;2.67;;
4794;SDS011;2411;47.060;15.064;2022-09-03T20:06:47;3.23;;;3.03;;
4794;SDS011;2411;47.060;15.064;2022-09-03T20:09:34;3.27;;;3.07;;
4794;SDS011;2411;47.060;15.064;2022-09-03T20:12:25;2.97;;;2.77;;
4794;SDS011;2411;47.060;15.064;2022-09-03T20:14:56;3.60;;;2.90;;
4794;SDS011;2411;47.060;15.064;2022-09-03T20:23:38;3.27;;;3.07;;
4794;SDS011;2411;47.060;15.064;2022-09-03T20:45:17;2.40;;;2.30;;
4794;SDS011;2411;47.060;15.064;2022-09-03T20:48:13;2.20;;;2.10;;
4794;SDS011;2411;47.060;15.064;2022-09-03T21:05:21;3.53;;;3.23;;
4794;SDS011;2411;47.060;15.064;2022-09-03T21:08:12;2.63;;;2.53;;
4794;SDS011;2411;47.060;15.064;2022-09-03T21:11:03;3.53;;;3.20;;
4794;SDS011;2411;47.060;15.064;2022-09-03T21:13:46;3.47;;;3.17;;
4794;SDS011;2411;47.060;15.064;2022-09-03T21:16:28;3.70;;;3.40;;
4794;SDS011;2411;47.060;15.064;2022-09-03T21:27:15;3.77;;;3.30;;
4794;SDS011;2411;47.060;15.064;2022-09-03T21:32:36;8.47;;;3.30;;
4794;SDS011;2411;47.060;15.064;2022-09-03T21:35:38;6.13;;;3.47;;
4794;SDS011;2411;47.060;15.064;2022-09-03T21:38:16;3.47;;;3.27;;
4794;SDS011;2411;47.060;15.064;2022-09-03T21:40:53;3.63;;;3.37;;
4794;SDS011;2411;47.060;15.064;2022-09-03T21:43:27;8.60;;;3.50;;
4794;SDS011;2411;47.060;15.064;2022-09-03T21:46:18;5.80;;;3.50;;
4794;SDS011;2411;47.060;15.064;2022-09-03T21:48:56;3.13;;;2.93;;
4794;SDS011;2411;47.060;15.064;2022-09-03T21:51:43;3.63;;;3.40;;
4794;SDS011;2411;47.060;15.064;2022-09-03T21:54:29;4.17;;;3.40;;
4794;SDS011;2411;47.060;15.064;2022-09-03T21:57:23;8.13;;;4.03;;
4794;SDS011;2411;47.060;15.064;2022-09-03T22:00:25;5.53;;;3.47;;
4794;SDS011;2411;47.060;15.064;2022-09-03T22:02:58;4.13;;;3.20;;
4794;SDS011;2411;47.060;15.064;2022-09-03T22:05:38;3.27;;;3.07;;
4794;SDS011;2411;47.060;15.064;2022-09-03T22:08:25;3.87;;;3.57;;
4794;SDS011;2411;47.060;15.064;2022-09-03T22:11:05;3.90;;;3.50;;
4794;SDS011;2411;47.060;15.064;2022-09-03T22:19:04;3.87;;;3.50;;
4794;SDS011;2411;47.060;15.064;2022-09-03T22:21:39;3.90;;;3.60;;
4794;SDS011;2411;47.060;15.064;2022-09-03T22:27:13;3.10;;;2.90;;
4794;SDS011;2411;47.060;15.064;2022-09-03T22:38:28;3.00;;;2.80;;
4794;SDS011;2411;47.060;15.064;2022-09-03T22:50:02;6.20;;;3.17;;